Time;durP1;ratioP1;P1;durP2;ratioP2;P2;SDS_P1;SDS_P2;PMS_P1;PMS_P2;Temp;Humidity;BMP_temperature;BMP_pressure;BME280_temperature;BME280_humidity;BME280_pressure;Samples;Min_cycle;Max_cycle;Signal;HPM_P1;HPM_P2
2023/05/30 00:00:11;;;;;;;8.63;2.87;;;11.80;99.90;;;;;;4956751;28;20199;-61
2023/05/30 00:02:44;;;;;;;8.70;3.20;;;11.80;99.90;;;;;;4955843;28;20247;-61
2023/05/30 00:05:13;;;;;;;8.80;3.03;;;11.70;99.90;;;;;;4956664;28;20223;-61
2023/05/30 00:07:41;;;;;;;13.30;3.57;;;11.70;99.90;;;;;;4957726;28;20706;-61
2023/05/30 00:10:10;;;;;;;14.23;3.13;;;11.70;99.90;;;;;;4953112;28;20226;-61
2023/05/30 00:12:40;;;;;;;12.30;3.03;;;11.70;99.90;;;;;;4958898;28;20275;-61
2023/05/30 00:15:10;;;;;;;11.97;3.40;;;11.70;99.90;;;;;;4952764;28;20191;-61
2023/05/30 00:17:39;;;;;;;12.30;2.83;;;11.60;99.90;;;;;;4951969;28;20220;-61
2023/05/30 00:20:11;;;;;;;10.27;3.27;;;11.60;99.90;;;;;;4954598;28;20236;-61
2023/05/30 00:22:41;;;;;;;12.00;3.43;;;11.60;99.90;;;;;;4955930;28;20232;-61
2023/05/30 00:25:10;;;;;;;12.73;3.50;;;11.60;99.90;;;;;;4956459;28;20228;-61
2023/05/30 00:27:39;;;;;;;14.77;3.50;;;11.60;99.90;;;;;;4958482;28;20230;-61
2023/05/30 00:30:11;;;;;;;14.43;3.73;;;11.50;99.90;;;;;;4956001;28;20219;-61
2023/05/30 00:32:39;;;;;;;12.33;4.43;;;11.50;99.90;;;;;;4955378;28;20211;-61
2023/05/30 00:35:10;;;;;;;12.40;3.57;;;11.50;99.90;;;;;;4955729;28;20220;-61
2023/05/30 00:37:38;;;;;;;14.23;3.73;;;11.40;99.90;;;;;;4956799;28;20219;-62
2023/05/30 00:40:08;;;;;;;12.30;3.10;;;11.40;99.90;;;;;;4957414;28;20228;-61
2023/05/30 00:42:36;;;;;;;11.63;3.43;;;11.40;99.90;;;;;;4957966;28;20211;-61
2023/05/30 00:45:05;;;;;;;10.70;3.50;;;11.30;99.90;;;;;;4957480;28;20207;-61
2023/05/30 00:47:34;;;;;;;10.67;3.23;;;11.30;99.90;;;;;;4957450;28;20220;-61
2023/05/30 00:50:03;;;;;;;17.30;3.97;;;11.30;99.90;;;;;;4954048;28;20232;-61
2023/05/30 00:52:34;;;;;;;14.80;3.90;;;11.30;99.90;;;;;;4952235;28;20299;-61
2023/05/30 00:55:03;;;;;;;15.03;3.73;;;11.30;99.90;;;;;;4955480;28;20279;-61
2023/05/30 00:57:33;;;;;;;11.47;3.63;;;11.20;99.90;;;;;;4957772;28;20202;-61
2023/05/30 01:00:03;;;;;;;12.77;3.60;;;11.20;99.90;;;;;;4949150;28;20203;-61
2023/05/30 01:02:33;;;;;;;10.90;3.40;;;11.20;99.90;;;;;;4954054;28;20814;-61
2023/05/30 01:05:02;;;;;;;18.07;3.67;;;11.10;99.90;;;;;;4949043;28;20234;-61
2023/05/30 01:07:33;;;;;;;16.07;3.63;;;11.10;99.90;;;;;;4950058;28;20595;-61
2023/05/30 01:10:02;;;;;;;15.33;3.10;;;11.10;99.90;;;;;;4953303;28;20231;-61
2023/05/30 01:12:39;;;;;;;14.90;3.60;;;11.10;99.90;;;;;;4954063;28;20705;-60
2023/05/30 01:15:11;;;;;;;11.93;3.20;;;11.10;99.90;;;;;;4947754;28;20196;-61
2023/05/30 01:17:49;;;;;;;13.27;3.80;;;11.10;99.90;;;;;;4953472;28;20400;-61
2023/05/30 01:20:20;;;;;;;16.77;3.90;;;11.00;99.90;;;;;;4952769;28;20274;-62
2023/05/30 01:23:03;;;;;;;19.90;3.47;;;11.00;99.90;;;;;;4954717;28;20224;-61
2023/05/30 01:25:53;;;;;;;16.00;3.93;;;11.00;99.90;;;;;;4950467;28;20242;-61
2023/05/30 01:28:28;;;;;;;13.73;3.70;;;10.90;99.90;;;;;;4953803;28;20263;-61
2023/05/30 01:30:59;;;;;;;12.10;3.43;;;10.90;99.90;;;;;;4951327;28;20227;-61
2023/05/30 01:33:28;;;;;;;8.67;3.40;;;10.90;99.90;;;;;;4951007;28;20666;-60
2023/05/30 01:35:57;;;;;;;13.83;3.57;;;10.90;99.90;;;;;;4952182;29;20199;-61
2023/05/30 01:38:25;;;;;;;8.63;3.23;;;10.80;99.90;;;;;;4951743;28;20319;-61
2023/05/30 01:40:59;;;;;;;11.87;3.67;;;10.80;99.90;;;;;;4951762;28;20227;-61
2023/05/30 01:43:40;;;;;;;13.57;3.60;;;10.80;99.90;;;;;;4950770;28;20313;-62
2023/05/30 01:46:22;;;;;;;12.07;3.07;;;10.80;99.90;;;;;;4949405;28;20232;-61
2023/05/30 01:48:58;;;;;;;18.13;3.50;;;10.70;99.90;;;;;;4949539;28;20224;-61
2023/05/30 01:51:31;;;;;;;9.77;3.23;;;10.70;99.90;;;;;;4952080;28;20574;-61
2023/05/30 01:54:02;;;;;;;7.40;3.33;;;10.70;99.90;;;;;;4949186;28;20375;-61
2023/05/30 01:56:33;;;;;;;13.73;3.60;;;10.70;99.90;;;;;;4949386;28;20212;-61
2023/05/30 01:59:08;;;;;;;15.03;3.67;;;10.60;99.90;;;;;;4951803;28;20264;-61
2023/05/30 02:01:37;;;;;;;16.43;3.57;;;10.60;99.90;;;;;;4950809;28;20227;-61
2023/05/30 02:04:06;;;;;;;14.70;3.40;;;10.60;99.90;;;;;;4952780;29;20252;-61
2023/05/30 02:06:35;;;;;;;18.47;4.23;;;10.60;99.90;;;;;;4948483;28;20199;-61
2023/05/30 02:09:03;;;;;;;12.37;3.30;;;10.50;99.90;;;;;;4955009;28;20650;-61
2023/05/30 02:11:32;;;;;;;15.07;3.33;;;10.50;99.90;;;;;;4953407;28;20238;-61
2023/05/30 02:14:00;;;;;;;12.43;3.00;;;10.50;99.90;;;;;;4949011;28;20228;-61
2023/05/30 02:16:30;;;;;;;15.10;3.73;;;10.40;99.90;;;;;;4945596;28;20255;-61
2023/05/30 02:18:58;;;;;;;14.17;3.67;;;10.40;99.90;;;;;;4953518;28;20259;-61
2023/05/30 02:21:26;;;;;;;9.57;3.43;;;10.30;99.90;;;;;;4949760;28;20275;-61
2023/05/30 02:23:55;;;;;;;16.40;3.47;;;10.30;99.90;;;;;;4954109;28;20211;-61
2023/05/30 02:26:23;;;;;;;9.63;3.10;;;10.30;99.90;;;;;;4952975;28;20694;-61
2023/05/30 02:28:52;;;;;;;10.53;3.43;;;10.30;99.90;;;;;;4953079;28;20219;-61
2023/05/30 02:31:20;;;;;;;12.70;4.07;;;10.30;99.90;;;;;;4949250;28;20228;-61
2023/05/30 02:33:50;;;;;;;11.93;3.53;;;10.30;99.90;;;;;;4954152;28;20228;-61
2023/05/30 02:36:18;;;;;;;12.30;3.47;;;10.30;99.90;;;;;;4943060;28;20594;-62
2023/05/30 02:38:48;;;;;;;11.57;3.43;;;10.20;99.90;;;;;;4945310;28;20271;-62
2023/05/30 02:41:17;;;;;;;11.90;3.20;;;10.20;99.90;;;;;;4951986;28;20279;-61
2023/05/30 02:43:45;;;;;;;7.77;3.43;;;10.20;99.90;;;;;;4953707;28;20246;-61
2023/05/30 02:46:13;;;;;;;18.23;3.90;;;10.20;99.90;;;;;;4952980;28;20224;-61
2023/05/30 02:48:41;;;;;;;17.80;4.50;;;10.20;99.90;;;;;;4954419;28;20184;-62
2023/05/30 02:51:11;;;;;;;25.43;3.70;;;10.10;99.90;;;;;;4952765;28;20622;-61
2023/05/30 02:53:40;;;;;;;15.23;3.87;;;10.10;99.90;;;;;;4953344;28;20220;-61
2023/05/30 02:56:08;;;;;;;8.77;3.23;;;10.00;99.90;;;;;;4947191;28;20227;-61
2023/05/30 02:58:37;;;;;;;13.03;3.60;;;10.00;99.90;;;;;;4948781;28;20310;-61
2023/05/30 03:01:05;;;;;;;14.03;4.20;;;10.00;99.90;;;;;;4946524;28;20235;-61
2023/05/30 03:03:35;;;;;;;11.57;3.40;;;10.00;99.90;;;;;;4952558;28;20271;-61
2023/05/30 03:06:04;;;;;;;16.97;3.90;;;10.00;99.90;;;;;;4950032;28;20197;-61
2023/05/30 03:08:35;;;;;;;20.17;4.37;;;10.00;99.90;;;;;;4952725;28;20322;-62
2023/05/30 03:11:03;;;;;;;18.50;3.93;;;10.00;99.90;;;;;;4949997;28;20216;-61
2023/05/30 03:13:32;;;;;;;18.47;4.10;;;9.90;99.90;;;;;;4950277;28;20303;-61
2023/05/30 03:16:01;;;;;;;11.23;3.73;;;9.90;99.90;;;;;;4948480;28;20250;-61
2023/05/30 03:18:29;;;;;;;20.73;3.90;;;10.00;99.90;;;;;;4949106;28;20196;-60
2023/05/30 03:20:58;;;;;;;14.80;4.13;;;9.90;99.90;;;;;;4950313;28;20192;-61
2023/05/30 03:23:26;;;;;;;15.47;4.33;;;9.90;99.90;;;;;;4947951;28;20963;-61
2023/05/30 03:25:56;;;;;;;14.20;3.87;;;9.90;99.90;;;;;;4952005;28;20228;-61
2023/05/30 03:28:24;;;;;;;27.53;4.97;;;9.90;99.90;;;;;;4951717;28;20211;-61
2023/05/30 03:30:55;;;;;;;20.40;4.67;;;9.80;99.90;;;;;;4947876;28;20246;-61
2023/05/30 03:33:24;;;;;;;16.83;4.17;;;9.80;99.90;;;;;;4953579;28;20192;-61
2023/05/30 03:35:53;;;;;;;16.10;4.60;;;9.80;99.90;;;;;;4948846;28;20227;-61
2023/05/30 03:38:22;;;;;;;14.60;4.17;;;9.80;99.90;;;;;;4953318;28;20255;-61
2023/05/30 03:40:50;;;;;;;15.23;4.00;;;9.80;99.90;;;;;;4951484;28;20568;-62
2023/05/30 03:43:20;;;;;;;17.77;4.20;;;9.80;99.90;;;;;;4952073;28;20220;-61
2023/05/30 03:45:51;;;;;;;17.67;4.40;;;9.80;99.90;;;;;;4952935;28;20769;-61
2023/05/30 03:48:20;;;;;;;18.23;3.87;;;9.80;99.90;;;;;;4946558;29;20643;-61
2023/05/30 03:50:48;;;;;;;18.80;5.23;;;9.80;99.90;;;;;;4945556;28;20228;-61
2023/05/30 03:53:17;;;;;;;19.93;4.27;;;9.70;99.90;;;;;;4946466;28;20642;-61
2023/05/30 03:55:45;;;;;;;22.07;4.83;;;9.70;99.90;;;;;;4948664;28;20223;-61
2023/05/30 03:58:13;;;;;;;18.70;4.17;;;9.80;99.90;;;;;;4950011;28;20332;-62
2023/05/30 04:00:43;;;;;;;11.40;3.70;;;9.70;99.90;;;;;;4949233;28;20563;-61
2023/05/30 04:03:12;;;;;;;14.40;4.40;;;9.80;99.90;;;;;;4948092;29;20214;-62
2023/05/30 04:05:41;;;;;;;17.47;4.13;;;9.80;99.90;;;;;;4949878;28;20250;-62
2023/05/30 04:08:09;;;;;;;14.97;5.10;;;9.80;99.90;;;;;;4951601;28;20220;-62
2023/05/30 04:10:37;;;;;;;20.23;4.67;;;9.80;99.90;;;;;;4948793;28;20226;-61
2023/05/30 04:13:06;;;;;;;17.13;4.23;;;9.90;99.90;;;;;;4947695;28;20224;-61
2023/05/30 04:15:35;;;;;;;20.00;5.13;;;9.90;99.90;;;;;;4949381;28;20512;-61
2023/05/30 04:18:05;;;;;;;20.10;4.90;;;9.90;99.90;;;;;;4946171;29;20684;-61
2023/05/30 04:20:33;;;;;;;18.33;4.73;;;9.90;99.90;;;;;;4950685;28;20231;-61
2023/05/30 04:23:02;;;;;;;18.03;4.90;;;9.90;99.90;;;;;;4951299;28;20575;-62
2023/05/30 04:25:30;;;;;;;14.17;4.53;;;9.90;99.90;;;;;;4955148;28;20683;-61
2023/05/30 04:27:58;;;;;;;16.83;4.63;;;10.00;99.90;;;;;;4953857;28;20694;-61
2023/05/30 04:30:28;;;;;;;16.77;4.50;;;10.00;99.90;;;;;;4953819;28;20218;-61
2023/05/30 04:32:56;;;;;;;16.30;4.40;;;10.00;99.90;;;;;;4956008;28;20196;-61
2023/05/30 04:35:26;;;;;;;20.07;4.87;;;10.00;99.90;;;;;;4947491;28;20240;-61
2023/05/30 04:37:56;;;;;;;23.20;5.07;;;10.00;99.90;;;;;;4952119;28;20649;-61
2023/05/30 04:40:25;;;;;;;23.17;4.83;;;10.00;99.90;;;;;;4954430;28;20621;-62
2023/05/30 04:42:53;;;;;;;15.80;5.00;;;10.10;99.90;;;;;;4953152;28;20587;-61
2023/05/30 04:45:28;;;;;;;20.53;4.43;;;10.10;99.90;;;;;;4948866;29;20936;-62
2023/05/30 04:47:57;;;;;;;16.47;4.70;;;10.20;99.90;;;;;;4952305;28;20223;-61
2023/05/30 04:50:29;;;;;;;14.60;4.47;;;10.20;99.90;;;;;;4953145;28;20230;-61
2023/05/30 04:52:57;;;;;;;20.57;4.97;;;10.20;99.90;;;;;;4952041;28;20231;-62
2023/05/30 04:55:26;;;;;;;20.83;4.43;;;10.30;99.90;;;;;;4951172;28;20224;-62
2023/05/30 04:57:54;;;;;;;25.50;5.70;;;10.50;99.90;;;;;;4952379;28;20239;-61
2023/05/30 05:00:23;;;;;;;17.90;4.97;;;10.50;99.90;;;;;;4951394;28;20200;-61
2023/05/30 05:02:51;;;;;;;18.00;4.53;;;10.50;99.90;;;;;;4949992;28;20227;-62
2023/05/30 05:05:20;;;;;;;18.90;4.20;;;10.60;99.90;;;;;;4951303;28;20242;-61
2023/05/30 05:07:49;;;;;;;16.60;4.43;;;10.70;99.90;;;;;;4954784;28;20330;-61
2023/05/30 05:10:18;;;;;;;16.73;4.67;;;10.80;99.90;;;;;;4955349;28;20220;-62
2023/05/30 05:12:47;;;;;;;16.53;4.00;;;10.80;99.90;;;;;;4952603;28;20228;-61
2023/05/30 05:15:15;;;;;;;12.33;4.70;;;10.90;99.90;;;;;;4955091;28;20192;-62
2023/05/30 05:17:43;;;;;;;15.70;4.27;;;11.00;99.90;;;;;;4954977;28;20574;-62
2023/05/30 05:20:13;;;;;;;15.77;4.57;;;11.00;99.90;;;;;;4951341;28;20270;-62
2023/05/30 05:22:41;;;;;;;15.33;4.70;;;11.10;99.90;;;;;;4953670;28;20278;-62
2023/05/30 05:25:11;;;;;;;17.50;4.77;;;11.20;99.90;;;;;;4954732;28;20232;-62
2023/05/30 05:27:40;;;;;;;20.40;4.70;;;11.20;99.90;;;;;;4954620;28;20192;-62
2023/05/30 05:30:10;;;;;;;15.50;4.70;;;11.30;99.90;;;;;;4953160;28;20196;-62
2023/05/30 05:32:39;;;;;;;18.77;4.27;;;11.40;99.90;;;;;;4952458;28;20232;-62
2023/05/30 05:35:09;;;;;;;15.17;4.60;;;11.50;99.90;;;;;;4951010;28;20615;-62
2023/05/30 05:37:38;;;;;;;17.07;4.60;;;11.60;99.90;;;;;;4945742;28;20219;-62
2023/05/30 05:40:08;;;;;;;20.37;5.27;;;11.70;99.90;;;;;;4951203;28;20258;-62
2023/05/30 05:42:38;;;;;;;11.77;4.40;;;11.80;99.90;;;;;;4951072;28;20205;-62
2023/05/30 05:45:07;;;;;;;16.20;4.30;;;11.90;99.90;;;;;;4954310;29;20216;-62
2023/05/30 05:47:36;;;;;;;14.70;4.30;;;11.90;99.90;;;;;;4954134;28;20232;-62
2023/05/30 05:50:05;;;;;;;16.80;4.33;;;11.90;99.90;;;;;;4953068;28;20247;-62
2023/05/30 05:52:33;;;;;;;18.40;4.43;;;12.00;99.90;;;;;;4952710;28;20220;-62
2023/05/30 05:55:01;;;;;;;18.33;5.27;;;12.10;99.90;;;;;;4949346;28;20235;-62
2023/05/30 05:57:30;;;;;;;17.10;5.10;;;12.20;99.90;;;;;;4950675;28;20726;-62
2023/05/30 05:59:59;;;;;;;13.67;4.83;;;12.20;99.90;;;;;;4951503;28;20196;-63
2023/05/30 06:02:28;;;;;;;17.07;4.30;;;12.20;99.90;;;;;;4951690;28;20244;-62
2023/05/30 06:04:56;;;;;;;11.70;4.47;;;12.40;99.90;;;;;;4950813;28;20224;-62
2023/05/30 06:07:25;;;;;;;11.43;4.00;;;12.50;99.90;;;;;;4954079;28;20322;-62
2023/05/30 06:09:53;;;;;;;12.30;4.30;;;12.70;99.90;;;;;;4948821;28;20230;-62
2023/05/30 06:12:22;;;;;;;11.37;4.43;;;12.80;99.90;;;;;;4950775;28;20204;-62
2023/05/30 06:14:50;;;;;;;17.07;4.47;;;12.90;99.90;;;;;;4953956;28;20235;-62
2023/05/30 06:17:20;;;;;;;15.77;4.40;;;13.00;99.90;;;;;;4956490;28;20228;-62
2023/05/30 06:19:50;;;;;;;17.50;4.40;;;13.00;99.90;;;;;;4955109;28;20234;-62
2023/05/30 06:22:18;;;;;;;9.63;4.03;;;13.00;99.90;;;;;;4950460;28;20306;-62
2023/05/30 06:24:48;;;;;;;14.10;4.23;;;13.10;99.90;;;;;;4952176;28;20295;-61
2023/05/30 06:27:16;;;;;;;11.13;4.13;;;13.20;99.90;;;;;;4953754;28;20262;-62
2023/05/30 06:29:44;;;;;;;11.03;4.40;;;13.30;99.90;;;;;;4949593;28;20216;-62
2023/05/30 06:32:13;;;;;;;11.30;4.47;;;13.30;99.90;;;;;;4950053;28;20239;-62
2023/05/30 06:34:46;;;;;;;16.23;4.37;;;13.40;99.90;;;;;;4951913;28;20274;-62
2023/05/30 06:37:14;;;;;;;13.47;4.63;;;13.50;99.90;;;;;;4954188;28;20227;-62
2023/05/30 06:39:43;;;;;;;19.87;4.20;;;13.60;99.90;;;;;;4953052;28;20254;-62
2023/05/30 06:42:12;;;;;;;14.20;5.03;;;13.70;99.90;;;;;;4954387;28;20200;-62
2023/05/30 06:44:40;;;;;;;11.43;5.00;;;13.80;99.90;;;;;;4953152;28;20690;-62
2023/05/30 06:47:09;;;;;;;22.23;5.47;;;13.80;99.90;;;;;;4952491;28;20233;-62
2023/05/30 06:49:37;;;;;;;18.43;5.80;;;13.80;99.90;;;;;;4952728;28;20295;-62
2023/05/30 06:52:07;;;;;;;24.80;6.30;;;13.70;99.90;;;;;;4955483;28;20239;-62
2023/05/30 06:54:35;;;;;;;15.03;4.63;;;13.70;99.90;;;;;;4950560;28;20220;-62
2023/05/30 06:57:04;;;;;;;12.13;5.00;;;13.70;99.90;;;;;;4950041;28;20567;-62
2023/05/30 06:59:34;;;;;;;22.27;6.20;;;13.70;99.90;;;;;;4951923;28;20774;-62
2023/05/30 07:02:04;;;;;;;18.30;5.60;;;13.60;99.90;;;;;;4953557;28;20220;-61
2023/05/30 07:04:32;;;;;;;21.83;5.67;;;13.50;99.90;;;;;;4951219;28;20472;-62
2023/05/30 07:07:01;;;;;;;18.00;5.70;;;13.50;99.90;;;;;;4946741;28;20236;-62
2023/05/30 07:09:30;;;;;;;14.47;5.47;;;13.60;99.90;;;;;;4951877;28;20196;-61
2023/05/30 07:11:59;;;;;;;16.10;5.37;;;13.70;99.90;;;;;;4951862;29;20203;-62
2023/05/30 07:14:27;;;;;;;12.03;5.27;;;13.90;99.90;;;;;;4943576;28;20248;-62
2023/05/30 07:16:55;;;;;;;13.83;5.10;;;14.00;99.90;;;;;;4953491;28;20245;-62
2023/05/30 07:19:25;;;;;;;12.03;4.40;;;14.10;99.90;;;;;;4953315;28;20287;-62
2023/05/30 07:21:53;;;;;;;13.90;4.83;;;14.20;99.90;;;;;;4953465;28;20231;-62
2023/05/30 07:24:22;;;;;;;17.17;4.80;;;14.30;99.90;;;;;;4953706;28;20192;-62
2023/05/30 07:26:52;;;;;;;13.27;5.07;;;14.50;99.90;;;;;;4953259;28;20231;-61
2023/05/30 07:29:20;;;;;;;11.97;4.80;;;14.60;99.90;;;;;;4953149;28;20678;-62
2023/05/30 07:31:48;;;;;;;20.07;5.53;;;14.70;99.90;;;;;;4952421;28;20571;-62
2023/05/30 07:34:20;;;;;;;12.90;4.93;;;14.70;99.90;;;;;;4949775;28;20228;-62
2023/05/30 07:36:48;;;;;;;14.37;4.57;;;14.80;99.90;;;;;;4943012;28;20596;-62
2023/05/30 07:39:17;;;;;;;10.77;5.10;;;15.00;99.90;;;;;;4953315;28;20206;-62
2023/05/30 07:41:45;;;;;;;14.93;4.43;;;15.10;99.90;;;;;;4953376;28;20223;-62
2023/05/30 07:44:15;;;;;;;14.40;4.80;;;15.20;99.90;;;;;;4959674;28;20228;-62
2023/05/30 07:46:43;;;;;;;13.90;4.83;;;15.10;99.90;;;;;;4953790;28;20252;-62
2023/05/30 07:49:12;;;;;;;14.77;4.90;;;15.10;99.90;;;;;;4950364;28;20227;-62
2023/05/30 07:51:40;;;;;;;16.13;5.57;;;15.20;99.90;;;;;;4952754;28;20198;-61
2023/05/30 07:54:08;;;;;;;10.90;4.30;;;15.30;99.90;;;;;;4948026;28;20221;-62
2023/05/30 07:56:36;;;;;;;8.33;4.83;;;15.50;99.90;;;;;;4951647;28;20223;-62
2023/05/30 07:59:05;;;;;;;11.67;4.47;;;15.70;99.90;;;;;;4951141;28;20608;-62
2023/05/30 08:01:35;;;;;;;13.93;4.73;;;15.80;99.90;;;;;;4956393;28;20238;-62
2023/05/30 08:04:03;;;;;;;14.50;4.63;;;15.90;99.90;;;;;;4955703;28;20694;-62
2023/05/30 08:06:33;;;;;;;9.87;4.80;;;16.10;99.90;;;;;;4950104;28;20858;-62
2023/05/30 08:09:02;;;;;;;10.03;4.73;;;16.30;99.90;;;;;;4957721;28;20219;-62
2023/05/30 08:11:30;;;;;;;14.83;4.70;;;16.30;99.90;;;;;;4957003;28;20228;-62
2023/05/30 08:13:58;;;;;;;10.67;4.63;;;16.50;99.90;;;;;;4954632;28;20212;-62
2023/05/30 08:16:28;;;;;;;12.03;4.00;;;16.70;99.90;;;;;;4956684;28;20220;-62
2023/05/30 08:18:58;;;;;;;13.77;4.57;;;16.70;99.90;;;;;;4951033;28;20220;-62
2023/05/30 08:21:26;;;;;;;13.87;4.53;;;16.90;99.90;;;;;;4956377;29;20191;-62
2023/05/30 08:23:55;;;;;;;12.10;4.80;;;17.00;99.90;;;;;;4956317;28;20307;-62
2023/05/30 08:26:30;;;;;;;11.53;4.63;;;17.00;99.90;;;;;;4946797;28;20275;-62
2023/05/30 08:28:59;;;;;;;10.67;4.63;;;17.00;99.90;;;;;;4956907;28;20227;-62
2023/05/30 08:31:27;;;;;;;15.17;4.67;;;17.00;99.90;;;;;;4955401;28;20805;-62
2023/05/30 08:33:57;;;;;;;15.47;5.70;;;17.10;99.90;;;;;;4956656;28;20255;-62
2023/05/30 08:36:26;;;;;;;11.27;5.20;;;17.30;99.90;;;;;;4952996;28;20207;-62
2023/05/30 08:38:55;;;;;;;14.97;5.47;;;17.60;99.90;;;;;;4953033;28;20741;-62
2023/05/30 08:41:42;;;;;;;11.10;5.00;;;17.80;99.90;;;;;;4951281;28;20231;-62
2023/05/30 08:44:11;;;;;;;6.27;4.77;;;17.90;99.90;;;;;;4952870;28;20230;-62
2023/05/30 08:46:42;;;;;;;15.00;5.13;;;18.10;99.90;;;;;;4956124;28;20227;-63
2023/05/30 08:49:14;;;;;;;10.33;5.20;;;18.30;99.90;;;;;;4954097;28;20307;-62
2023/05/30 08:51:44;;;;;;;10.97;4.77;;;18.30;99.90;;;;;;4952040;28;20192;-62
2023/05/30 08:54:18;;;;;;;15.43;5.27;;;18.50;99.90;;;;;;4952476;28;20226;-63
2023/05/30 08:56:51;;;;;;;9.20;4.20;;;18.40;99.90;;;;;;4948552;28;20210;-63
2023/05/30 08:59:21;;;;;;;16.83;5.20;;;18.50;99.90;;;;;;4948834;28;20226;-63
2023/05/30 09:01:51;;;;;;;9.83;4.80;;;18.90;99.90;;;;;;4956422;28;20231;-63
2023/05/30 09:04:25;;;;;;;14.30;5.40;;;19.30;99.90;;;;;;4954048;28;20592;-63
2023/05/30 09:06:56;;;;;;;9.43;5.07;;;19.50;99.90;;;;;;4955245;28;20780;-62
2023/05/30 09:09:26;;;;;;;13.37;4.73;;;19.50;99.90;;;;;;4952266;28;20200;-63
2023/05/30 09:11:54;;;;;;;11.70;5.00;;;19.80;99.90;;;;;;4956132;28;20235;-63
2023/05/30 09:14:23;;;;;;;14.33;4.77;;;20.20;99.90;;;;;;4953910;28;20745;-63
2023/05/30 09:16:52;;;;;;;12.00;4.60;;;20.40;99.90;;;;;;4956165;28;20220;-63
2023/05/30 09:19:21;;;;;;;10.13;4.70;;;20.60;99.90;;;;;;4956613;28;20310;-63
2023/05/30 09:21:51;;;;;;;12.50;4.50;;;20.80;99.90;;;;;;4954936;28;20228;-63
2023/05/30 09:24:20;;;;;;;12.83;4.70;;;21.40;99.90;;;;;;4955768;28;20663;-63
2023/05/30 09:27:01;;;;;;;11.67;4.37;;;21.40;99.90;;;;;;4954842;28;20250;-63
2023/05/30 09:29:29;;;;;;;10.30;4.13;;;21.30;99.90;;;;;;4952519;28;20232;-63
2023/05/30 09:31:58;;;;;;;10.53;4.50;;;21.50;99.90;;;;;;4955499;28;20575;-63
2023/05/30 09:34:27;;;;;;;8.00;5.13;;;21.70;99.90;;;;;;4956421;28;20224;-63
2023/05/30 09:36:57;;;;;;;11.30;5.20;;;21.90;99.90;;;;;;4955823;28;20280;-63
2023/05/30 09:39:27;;;;;;;9.67;4.77;;;21.70;99.90;;;;;;4953941;28;20200;-63
2023/05/30 09:41:57;;;;;;;9.70;5.87;;;21.70;99.90;;;;;;4950364;29;20716;-63
2023/05/30 09:44:26;;;;;;;12.27;5.33;;;21.70;99.90;;;;;;4956297;28;20239;-63
2023/05/30 09:46:58;;;;;;;9.83;5.53;;;21.60;99.90;;;;;;4954961;28;20699;-62
2023/05/30 09:49:28;;;;;;;12.77;5.50;;;22.10;99.90;;;;;;4955881;28;20259;-63
2023/05/30 09:51:57;;;;;;;8.73;5.30;;;22.10;99.90;;;;;;4954548;28;20224;-62
2023/05/30 09:54:26;;;;;;;11.40;5.40;;;22.20;99.90;;;;;;4955853;28;20227;-63
2023/05/30 09:56:54;;;;;;;7.80;5.25;;;22.60;99.90;;;;;;4949008;28;20216;-63
2023/05/30 09:59:23;;;;;;;8.60;5.60;;;22.90;99.90;;;;;;4952380;28;20243;-63
2023/05/30 10:01:52;;;;;;;10.80;5.88;;;22.80;99.90;;;;;;4954387;28;20232;-63
2023/05/30 10:04:22;;;;;;;5.90;5.18;;;23.00;99.90;;;;;;4953404;28;20689;-62
2023/05/30 10:06:52;;;;;;;10.23;5.75;;;22.90;99.90;;;;;;4954559;28;20228;-63
2023/05/30 10:09:24;;;;;;;10.45;5.40;;;22.70;99.90;;;;;;4953908;29;20672;-63
2023/05/30 10:11:53;;;;;;;10.47;5.57;;;22.70;99.90;;;;;;4952523;29;20212;-63
2023/05/30 10:14:21;;;;;;;8.67;5.90;;;22.70;99.90;;;;;;4948724;28;20616;-63
2023/05/30 10:16:54;;;;;;;11.37;6.80;;;22.70;99.90;;;;;;4960356;28;20229;-63
2023/05/30 10:19:26;;;;;;;12.53;6.00;;;22.80;99.90;;;;;;4952667;28;20236;-62
2023/05/30 10:21:55;;;;;;;11.67;7.23;;;22.90;99.90;;;;;;4948264;28;20232;-63
2023/05/30 10:24:30;;;;;;;9.43;6.30;;;22.60;99.90;;;;;;4949748;28;20199;-62
2023/05/30 10:27:03;;;;;;;13.90;6.93;;;22.80;99.90;;;;;;4955973;28;20208;-62
2023/05/30 10:29:34;;;;;;;13.17;5.70;;;23.10;99.90;;;;;;4952680;28;20232;-62
2023/05/30 10:32:06;;;;;;;10.70;5.90;;;23.30;99.90;;;;;;4949369;28;20228;-62
2023/05/30 10:34:42;;;;;;;8.57;5.60;;;23.30;99.90;;;;;;4954742;28;20244;-63
2023/05/30 10:37:12;;;;;;;11.20;5.50;;;23.30;99.90;;;;;;4949553;28;20215;-63
2023/05/30 10:40:06;;;;;;;9.70;5.50;;;23.50;99.90;;;;;;4956887;28;20215;-62
2023/05/30 10:42:41;;;;;;;11.57;6.50;;;23.50;99.90;;;;;;4953542;28;20205;-62
2023/05/30 10:45:16;;;;;;;9.20;6.20;;;23.00;99.90;;;;;;4953345;28;20683;-62
2023/05/30 10:47:54;;;;;;;10.93;6.37;;;22.80;99.90;;;;;;4954357;28;20772;-62
2023/05/30 10:50:29;;;;;;;11.10;6.90;;;23.20;99.90;;;;;;4952114;28;20687;-63
2023/05/30 10:52:59;;;;;;;11.77;7.30;;;23.20;99.90;;;;;;4949428;28;20222;-62
2023/05/30 10:55:29;;;;;;;12.33;7.57;;;23.30;99.90;;;;;;4949218;28;20259;-62
2023/05/30 10:57:57;;;;;;;16.97;8.10;;;22.90;99.90;;;;;;4947156;28;20235;-62
2023/05/30 11:00:30;;;;;;;12.60;7.10;;;23.30;99.90;;;;;;4949733;28;20195;-63
2023/05/30 11:03:00;;;;;;;13.93;7.70;;;23.40;99.90;;;;;;4953010;28;20220;-62
2023/05/30 11:05:33;;;;;;;11.00;7.97;;;23.60;99.90;;;;;;4947512;28;20714;-62
2023/05/30 11:08:02;;;;;;;10.90;7.93;;;23.70;99.90;;;;;;4953499;28;20224;-63
2023/05/30 11:10:35;;;;;;;11.03;7.87;;;23.80;99.90;;;;;;4953614;28;20220;-62
2023/05/30 11:13:11;;;;;;;9.77;7.70;;;23.70;99.90;;;;;;4946040;28;20315;-62
2023/05/30 11:15:45;;;;;;;13.87;7.83;;;23.40;99.90;;;;;;4948887;28;20196;-62
2023/05/30 11:18:16;;;;;;;17.17;8.67;;;23.50;99.90;;;;;;4949525;28;20203;-63
2023/05/30 11:20:54;;;;;;;12.93;7.90;;;23.50;99.90;;;;;;4946565;28;20232;-63
2023/05/30 11:23:24;;;;;;;10.40;7.20;;;23.70;99.90;;;;;;4946719;28;20623;-62
2023/05/30 11:25:59;;;;;;;16.80;7.87;;;23.60;99.90;;;;;;4953058;28;20307;-62
2023/05/30 11:28:36;;;;;;;15.20;7.60;;;22.90;99.90;;;;;;4948990;28;20219;-62
2023/05/30 11:31:19;;;;;;;10.37;7.90;;;22.80;99.90;;;;;;4953448;28;20561;-62
2023/05/30 11:33:51;;;;;;;13.90;8.33;;;22.60;99.90;;;;;;4950904;28;20230;-62
2023/05/30 11:36:22;;;;;;;12.80;8.57;;;22.20;99.90;;;;;;4954452;28;20216;-62
2023/05/30 11:38:52;;;;;;;14.20;8.47;;;22.10;99.90;;;;;;4953094;28;20264;-62
2023/05/30 11:41:24;;;;;;;16.87;7.87;;;22.40;99.90;;;;;;4951941;28;20229;-62
2023/05/30 11:43:53;;;;;;;13.53;9.43;;;22.30;99.90;;;;;;4951227;28;20227;-62
2023/05/30 11:46:21;;;;;;;13.70;9.53;;;22.20;99.90;;;;;;4942418;28;20289;-62
2023/05/30 11:48:50;;;;;;;16.53;9.23;;;22.20;99.90;;;;;;4951535;28;20238;-62
2023/05/30 11:51:18;;;;;;;16.30;9.40;;;22.30;99.90;;;;;;4950747;28;20193;-62
2023/05/30 11:53:46;;;;;;;17.57;10.23;;;22.00;99.90;;;;;;4956001;28;20224;-63
2023/05/30 11:56:16;;;;;;;29.23;9.83;;;21.80;99.90;;;;;;4954185;28;20233;-62
2023/05/30 11:58:50;;;;;;;14.90;9.47;;;22.20;99.90;;;;;;4952790;28;20224;-62
2023/05/30 12:01:19;;;;;;;14.13;8.67;;;22.40;99.90;;;;;;4952458;28;20228;-62
2023/05/30 12:03:48;;;;;;;18.30;8.97;;;22.50;99.90;;;;;;4953454;28;20231;-62
2023/05/30 12:06:16;;;;;;;10.47;7.90;;;22.50;99.90;;;;;;4950493;28;20223;-62
2023/05/30 12:08:47;;;;;;;15.37;8.90;;;22.40;99.90;;;;;;4952260;28;20267;-62
2023/05/30 12:11:16;;;;;;;15.97;8.53;;;22.40;99.90;;;;;;4953297;28;20707;-62
2023/05/30 12:13:46;;;;;;;17.23;8.40;;;22.50;99.90;;;;;;4951068;28;20226;-62
2023/05/30 12:16:14;;;;;;;17.10;8.97;;;22.50;99.90;;;;;;4958473;28;20563;-62
2023/05/30 12:18:43;;;;;;;15.03;8.77;;;22.30;99.90;;;;;;4952654;28;20195;-63
2023/05/30 12:21:13;;;;;;;16.37;8.73;;;22.30;99.90;;;;;;4952257;28;20349;-63
2023/05/30 12:23:43;;;;;;;24.27;8.43;;;22.40;99.90;;;;;;4947937;28;20240;-62
2023/05/30 12:26:18;;;;;;;14.77;9.17;;;22.30;99.90;;;;;;4944042;28;20300;-62
2023/05/30 12:28:49;;;;;;;12.87;8.10;;;22.50;99.90;;;;;;4951181;28;20570;-62
2023/05/30 12:31:24;;;;;;;10.60;7.60;;;22.50;99.90;;;;;;4951072;28;20239;-62
2023/05/30 12:33:53;;;;;;;13.50;7.80;;;21.90;99.90;;;;;;4951861;28;20220;-62
2023/05/30 12:36:22;;;;;;;15.17;8.03;;;22.00;99.90;;;;;;4949349;28;20200;-62
2023/05/30 12:38:58;;;;;;;20.57;8.60;;;22.20;99.90;;;;;;4951925;28;20208;-62
2023/05/30 12:41:30;;;;;;;15.83;7.70;;;22.20;99.90;;;;;;4952353;28;20507;-63
2023/05/30 12:44:00;;;;;;;12.97;8.27;;;22.40;99.90;;;;;;4949821;28;20228;-63
2023/05/30 12:46:31;;;;;;;13.40;7.80;;;22.40;99.90;;;;;;4952819;28;20228;-62
2023/05/30 12:48:59;;;;;;;16.93;8.43;;;22.50;99.90;;;;;;4953512;28;20233;-62
2023/05/30 12:51:28;;;;;;;14.63;8.40;;;22.50;99.90;;;;;;4955680;28;20210;-62